sensor_id;sensor_type;location;lat;lon;timestamp;temperature;humidity
2647;DHT22;1333;50.958;6.770;2022-11-18T00:01:47;8.40;99.90
2647;DHT22;1333;50.958;6.770;2022-11-18T00:04:13;8.40;99.90
2647;DHT22;1333;50.958;6.770;2022-11-18T00:06:38;8.40;99.90
2647;DHT22;1333;50.958;6.770;2022-11-18T00:09:04;8.50;99.90
2647;DHT22;1333;50.958;6.770;2022-11-18T00:11:29;8.50;99.90
2647;DHT22;1333;50.958;6.770;2022-11-18T00:14:17;8.40;99.90
2647;DHT22;1333;50.958;6.770;2022-11-18T00:16:53;8.50;99.90
2647;DHT22;1333;50.958;6.770;2022-11-18T00:19:21;8.40;99.90
2647;DHT22;1333;50.958;6.770;2022-11-18T00:21:47;8.30;99.90
2647;DHT22;1333;50.958;6.770;2022-11-18T00:24:13;8.40;99.90
2647;DHT22;1333;50.958;6.770;2022-11-18T00:26:38;8.30;99.90
2647;DHT22;1333;50.958;6.770;2022-11-18T00:29:04;8.30;99.90
2647;DHT22;1333;50.958;6.770;2022-11-18T00:31:30;8.30;99.90
2647;DHT22;1333;50.958;6.770;2022-11-18T00:33:55;8.40;99.90
2647;DHT22;1333;50.958;6.770;2022-11-18T00:36:21;8.40;99.90
2647;DHT22;1333;50.958;6.770;2022-11-18T00:38:46;8.50;99.90
2647;DHT22;1333;50.958;6.770;2022-11-18T00:41:14;8.60;99.90
2647;DHT22;1333;50.958;6.770;2022-11-18T00:43:40;8.60;99.90
2647;DHT22;1333;50.958;6.770;2022-11-18T00:46:08;8.60;99.90
2647;DHT22;1333;50.958;6.770;2022-11-18T00:48:34;8.70;99.90
2647;DHT22;1333;50.958;6.770;2022-11-18T00:53:32;8.80;99.90
2647;DHT22;1333;50.958;6.770;2022-11-18T00:55:57;8.90;99.90
2647;DHT22;1333;50.958;6.770;2022-11-18T00:58:23;8.80;99.90
2647;DHT22;1333;50.958;6.770;2022-11-18T01:00:52;8.90;99.90
2647;DHT22;1333;50.958;6.770;2022-11-18T01:03:18;8.90;99.90
2647;DHT22;1333;50.958;6.770;2022-11-18T01:05:44;8.80;99.90
2647;DHT22;1333;50.958;6.770;2022-11-18T01:08:11;8.90;99.90
2647;DHT22;1333;50.958;6.770;2022-11-18T01:10:37;8.90;99.90
2647;DHT22;1333;50.958;6.770;2022-11-18T01:13:04;8.90;99.90
2647;DHT22;1333;50.958;6.770;2022-11-18T01:15:46;8.80;99.90
2647;DHT22;1333;50.958;6.770;2022-11-18T01:18:12;8.80;99.90
2647;DHT22;1333;50.958;6.770;2022-11-18T01:20:38;8.80;99.90
2647;DHT22;1333;50.958;6.770;2022-11-18T01:23:03;8.90;99.90
2647;DHT22;1333;50.958;6.770;2022-11-18T01:25:29;8.80;99.90
2647;DHT22;1333;50.958;6.770;2022-11-18T01:27:55;8.90;99.90
2647;DHT22;1333;50.958;6.770;2022-11-18T01:30:21;8.90;99.90
2647;DHT22;1333;50.958;6.770;2022-11-18T01:32:47;8.90;99.90
2647;DHT22;1333;50.958;6.770;2022-11-18T01:35:13;8.90;99.90
2647;DHT22;1333;50.958;6.770;2022-11-18T01:37:39;8.90;99.90
2647;DHT22;1333;50.958;6.770;2022-11-18T01:40:06;9.00;99.90
2647;DHT22;1333;50.958;6.770;2022-11-18T01:42:31;9.00;99.90
2647;DHT22;1333;50.958;6.770;2022-11-18T01:44:59;9.00;99.90
2647;DHT22;1333;50.958;6.770;2022-11-18T01:47:28;9.10;99.90
2647;DHT22;1333;50.958;6.770;2022-11-18T01:49:58;9.10;99.90
2647;DHT22;1333;50.958;6.770;2022-11-18T01:52:24;9.10;99.90
2647;DHT22;1333;50.958;6.770;2022-11-18T01:54:53;9.20;99.90
2647;DHT22;1333;50.958;6.770;2022-11-18T01:57:21;9.20;99.90
2647;DHT22;1333;50.958;6.770;2022-11-18T01:59:49;9.20;99.90
2647;DHT22;1333;50.958;6.770;2022-11-18T02:02:17;9.20;99.90
2647;DHT22;1333;50.958;6.770;2022-11-18T02:04:46;9.10;99.90
2647;DHT22;1333;50.958;6.770;2022-11-18T02:07:13;9.10;99.90
2647;DHT22;1333;50.958;6.770;2022-11-18T02:09:39;9.10;99.90
2647;DHT22;1333;50.958;6.770;2022-11-18T02:12:05;9.10;99.90
2647;DHT22;1333;50.958;6.770;2022-11-18T02:14:35;9.10;99.90
2647;DHT22;1333;50.958;6.770;2022-11-18T02:17:20;9.10;99.90
2647;DHT22;1333;50.958;6.770;2022-11-18T02:20:17;9.20;99.90
2647;DHT22;1333;50.958;6.770;2022-11-18T02:23:10;9.20;99.90
2647;DHT22;1333;50.958;6.770;2022-11-18T02:33:48;9.20;99.90
2647;DHT22;1333;50.958;6.770;2022-11-18T02:36:23;9.20;99.90
2647;DHT22;1333;50.958;6.770;2022-11-18T02:39:04;9.30;99.90
2647;DHT22;1333;50.958;6.770;2022-11-18T02:41:32;9.30;99.90
2647;DHT22;1333;50.958;6.770;2022-11-18T02:44:03;9.20;99.90
2647;DHT22;1333;50.958;6.770;2022-11-18T02:46:33;9.20;99.90
2647;DHT22;1333;50.958;6.770;2022-11-18T02:49:06;9.20;99.90
2647;DHT22;1333;50.958;6.770;2022-11-18T02:51:34;9.10;99.90
2647;DHT22;1333;50.958;6.770;2022-11-18T02:54:04;9.10;99.90
2647;DHT22;1333;50.958;6.770;2022-11-18T02:56:32;9.10;99.90
2647;DHT22;1333;50.958;6.770;2022-11-18T02:58:59;9.20;99.90
2647;DHT22;1333;50.958;6.770;2022-11-18T03:01:28;9.20;99.90
2647;DHT22;1333;50.958;6.770;2022-11-18T03:03:54;9.10;99.90
2647;DHT22;1333;50.958;6.770;2022-11-18T03:06:41;9.10;99.90
2647;DHT22;1333;50.958;6.770;2022-11-18T03:09:26;9.10;99.90
2647;DHT22;1333;50.958;6.770;2022-11-18T03:12:10;9.20;99.90
2647;DHT22;1333;50.958;6.770;2022-11-18T03:15:17;9.20;99.90
2647;DHT22;1333;50.958;6.770;2022-11-18T03:20:34;9.20;99.90
2647;DHT22;1333;50.958;6.770;2022-11-18T03:25:44;9.30;99.90
2647;DHT22;1333;50.958;6.770;2022-11-18T03:30:42;9.20;99.90
2647;DHT22;1333;50.958;6.770;2022-11-18T03:33:12;9.20;99.90
2647;DHT22;1333;50.958;6.770;2022-11-18T03:35:40;9.20;99.90
2647;DHT22;1333;50.958;6.770;2022-11-18T03:38:14;9.20;99.90
2647;DHT22;1333;50.958;6.770;2022-11-18T03:40:46;9.20;99.90
2647;DHT22;1333;50.958;6.770;2022-11-18T03:43:15;9.30;99.90
2647;DHT22;1333;50.958;6.770;2022-11-18T03:45:46;9.30;99.90
2647;DHT22;1333;50.958;6.770;2022-11-18T03:48:16;9.30;99.90
2647;DHT22;1333;50.958;6.770;2022-11-18T03:50:46;9.30;99.90
2647;DHT22;1333;50.958;6.770;2022-11-18T03:53:13;9.40;99.90
2647;DHT22;1333;50.958;6.770;2022-11-18T03:55:41;9.40;99.90
2647;DHT22;1333;50.958;6.770;2022-11-18T03:58:10;9.40;99.90
2647;DHT22;1333;50.958;6.770;2022-11-18T04:00:44;9.50;99.90
2647;DHT22;1333;50.958;6.770;2022-11-18T04:03:10;9.40;99.90
2647;DHT22;1333;50.958;6.770;2022-11-18T04:05:41;9.50;99.90
2647;DHT22;1333;50.958;6.770;2022-11-18T04:08:12;9.40;99.90
2647;DHT22;1333;50.958;6.770;2022-11-18T04:10:54;9.40;99.90
2647;DHT22;1333;50.958;6.770;2022-11-18T04:13:26;9.40;99.90
2647;DHT22;1333;50.958;6.770;2022-11-18T04:15:54;9.30;99.90
2647;DHT22;1333;50.958;6.770;2022-11-18T04:18:20;9.40;99.90
2647;DHT22;1333;50.958;6.770;2022-11-18T04:20:45;9.40;99.90
2647;DHT22;1333;50.958;6.770;2022-11-18T04:23:11;9.40;99.90
2647;DHT22;1333;50.958;6.770;2022-11-18T04:25:37;9.50;99.90
2647;DHT22;1333;50.958;6.770;2022-11-18T04:28:03;9.40;99.90
2647;DHT22;1333;50.958;6.770;2022-11-18T04:30:29;9.40;99.90
2647;DHT22;1333;50.958;6.770;2022-11-18T04:32:54;9.40;99.90
2647;DHT22;1333;50.958;6.770;2022-11-18T04:35:20;9.40;99.90
2647;DHT22;1333;50.958;6.770;2022-11-18T04:37:46;9.50;99.90
2647;DHT22;1333;50.958;6.770;2022-11-18T04:40:11;9.40;99.90
2647;DHT22;1333;50.958;6.770;2022-11-18T04:42:37;9.40;99.90
2647;DHT22;1333;50.958;6.770;2022-11-18T04:45:03;9.30;99.90
2647;DHT22;1333;50.958;6.770;2022-11-18T04:47:29;9.30;99.90
2647;DHT22;1333;50.958;6.770;2022-11-18T04:49:55;9.30;99.90
2647;DHT22;1333;50.958;6.770;2022-11-18T04:52:20;9.30;99.90
2647;DHT22;1333;50.958;6.770;2022-11-18T04:54:46;9.30;99.90
2647;DHT22;1333;50.958;6.770;2022-11-18T04:57:12;9.30;99.90
2647;DHT22;1333;50.958;6.770;2022-11-18T04:59:37;9.30;99.90
2647;DHT22;1333;50.958;6.770;2022-11-18T05:02:03;9.40;99.90
2647;DHT22;1333;50.958;6.770;2022-11-18T05:04:31;9.40;99.90
2647;DHT22;1333;50.958;6.770;2022-11-18T05:06:58;9.50;99.90
2647;DHT22;1333;50.958;6.770;2022-11-18T05:09:24;9.50;99.90
2647;DHT22;1333;50.958;6.770;2022-11-18T05:11:50;9.50;99.90
2647;DHT22;1333;50.958;6.770;2022-11-18T05:14:34;9.50;99.90
2647;DHT22;1333;50.958;6.770;2022-11-18T05:17:02;9.40;99.90
2647;DHT22;1333;50.958;6.770;2022-11-18T05:19:28;9.40;99.90
2647;DHT22;1333;50.958;6.770;2022-11-18T05:21:54;9.40;99.90
2647;DHT22;1333;50.958;6.770;2022-11-18T05:24:19;9.40;99.90
2647;DHT22;1333;50.958;6.770;2022-11-18T05:26:45;9.40;99.90
2647;DHT22;1333;50.958;6.770;2022-11-18T05:29:11;9.30;99.90
2647;DHT22;1333;50.958;6.770;2022-11-18T05:31:37;9.30;99.90
2647;DHT22;1333;50.958;6.770;2022-11-18T05:34:02;9.30;99.90
2647;DHT22;1333;50.958;6.770;2022-11-18T05:36:28;9.30;99.90
2647;DHT22;1333;50.958;6.770;2022-11-18T05:38:53;9.30;99.90
2647;DHT22;1333;50.958;6.770;2022-11-18T05:41:19;9.20;99.90
2647;DHT22;1333;50.958;6.770;2022-11-18T05:44:03;9.30;99.90
2647;DHT22;1333;50.958;6.770;2022-11-18T05:46:30;9.20;99.90
2647;DHT22;1333;50.958;6.770;2022-11-18T05:48:56;9.20;99.90
2647;DHT22;1333;50.958;6.770;2022-11-18T05:51:21;9.30;99.90
2647;DHT22;1333;50.958;6.770;2022-11-18T05:53:49;9.30;99.90
2647;DHT22;1333;50.958;6.770;2022-11-18T05:56:21;9.30;99.90
2647;DHT22;1333;50.958;6.770;2022-11-18T05:58:48;9.20;99.90
2647;DHT22;1333;50.958;6.770;2022-11-18T06:01:20;9.10;99.90
2647;DHT22;1333;50.958;6.770;2022-11-18T06:03:47;9.10;99.90
2647;DHT22;1333;50.958;6.770;2022-11-18T06:06:15;9.00;99.90
2647;DHT22;1333;50.958;6.770;2022-11-18T06:08:51;8.90;99.90
2647;DHT22;1333;50.958;6.770;2022-11-18T06:11:19;8.80;99.90
2647;DHT22;1333;50.958;6.770;2022-11-18T06:13:54;8.80;99.90
2647;DHT22;1333;50.958;6.770;2022-11-18T06:16:23;8.70;99.90
2647;DHT22;1333;50.958;6.770;2022-11-18T06:18:50;8.70;99.90
2647;DHT22;1333;50.958;6.770;2022-11-18T06:21:16;8.60;99.90
2647;DHT22;1333;50.958;6.770;2022-11-18T06:23:42;8.60;99.90
2647;DHT22;1333;50.958;6.770;2022-11-18T06:26:08;8.50;99.90
2647;DHT22;1333;50.958;6.770;2022-11-18T06:28:36;8.50;99.90
2647;DHT22;1333;50.958;6.770;2022-11-18T06:31:02;8.60;99.90
2647;DHT22;1333;50.958;6.770;2022-11-18T06:33:27;8.60;99.90
2647;DHT22;1333;50.958;6.770;2022-11-18T06:35:53;8.60;99.90
2647;DHT22;1333;50.958;6.770;2022-11-18T06:38:18;8.60;99.90
2647;DHT22;1333;50.958;6.770;2022-11-18T06:40:44;8.60;99.90
2647;DHT22;1333;50.958;6.770;2022-11-18T06:43:10;8.60;99.90
2647;DHT22;1333;50.958;6.770;2022-11-18T06:45:59;8.60;99.90
2647;DHT22;1333;50.958;6.770;2022-11-18T06:48:43;8.60;99.90
2647;DHT22;1333;50.958;6.770;2022-11-18T06:51:09;8.60;99.90
2647;DHT22;1333;50.958;6.770;2022-11-18T06:53:35;8.60;99.90
2647;DHT22;1333;50.958;6.770;2022-11-18T06:56:05;8.60;99.90
2647;DHT22;1333;50.958;6.770;2022-11-18T06:58:31;8.70;99.90
2647;DHT22;1333;50.958;6.770;2022-11-18T07:00:56;8.60;99.90
2647;DHT22;1333;50.958;6.770;2022-11-18T07:03:22;8.60;99.90
2647;DHT22;1333;50.958;6.770;2022-11-18T07:05:47;8.60;99.90
2647;DHT22;1333;50.958;6.770;2022-11-18T07:08:13;8.60;99.90
2647;DHT22;1333;50.958;6.770;2022-11-18T07:10:38;8.60;99.90
2647;DHT22;1333;50.958;6.770;2022-11-18T07:13:04;8.70;99.90
2647;DHT22;1333;50.958;6.770;2022-11-18T07:15:29;8.80;99.90
2647;DHT22;1333;50.958;6.770;2022-11-18T07:17:55;8.80;99.90
2647;DHT22;1333;50.958;6.770;2022-11-18T07:20:20;8.80;99.90
2647;DHT22;1333;50.958;6.770;2022-11-18T07:22:46;8.90;99.90
2647;DHT22;1333;50.958;6.770;2022-11-18T07:25:11;8.90;99.90
2647;DHT22;1333;50.958;6.770;2022-11-18T07:27:37;9.00;99.90
2647;DHT22;1333;50.958;6.770;2022-11-18T07:30:03;9.00;99.90
2647;DHT22;1333;50.958;6.770;2022-11-18T07:32:28;9.10;99.90
2647;DHT22;1333;50.958;6.770;2022-11-18T07:34:54;9.10;99.90
2647;DHT22;1333;50.958;6.770;2022-11-18T07:37:19;9.20;99.90
2647;DHT22;1333;50.958;6.770;2022-11-18T07:39:45;9.20;99.90
2647;DHT22;1333;50.958;6.770;2022-11-18T07:42:10;9.30;99.90
2647;DHT22;1333;50.958;6.770;2022-11-18T07:44:36;9.40;99.90
2647;DHT22;1333;50.958;6.770;2022-11-18T07:47:01;9.40;99.90
2647;DHT22;1333;50.958;6.770;2022-11-18T07:49:27;9.50;99.90
2647;DHT22;1333;50.958;6.770;2022-11-18T07:51:52;9.60;99.90
2647;DHT22;1333;50.958;6.770;2022-11-18T07:54:18;9.60;99.90
2647;DHT22;1333;50.958;6.770;2022-11-18T07:56:44;9.80;99.90
2647;DHT22;1333;50.958;6.770;2022-11-18T07:59:10;9.80;99.90
2647;DHT22;1333;50.958;6.770;2022-11-18T08:01:35;9.90;99.90
2647;DHT22;1333;50.958;6.770;2022-11-18T08:04:09;10.10;99.90
2647;DHT22;1333;50.958;6.770;2022-11-18T08:06:35;10.20;99.90
2647;DHT22;1333;50.958;6.770;2022-11-18T08:09:01;10.40;99.90
2647;DHT22;1333;50.958;6.770;2022-11-18T08:11:27;10.40;99.90
2647;DHT22;1333;50.958;6.770;2022-11-18T08:13:52;10.50;99.90
2647;DHT22;1333;50.958;6.770;2022-11-18T08:16:21;10.70;99.90
2647;DHT22;1333;50.958;6.770;2022-11-18T08:18:47;10.80;99.90
2647;DHT22;1333;50.958;6.770;2022-11-18T08:21:14;10.90;99.90
2647;DHT22;1333;50.958;6.770;2022-11-18T08:23:40;11.00;99.90
2647;DHT22;1333;50.958;6.770;2022-11-18T08:26:13;11.10;99.90
2647;DHT22;1333;50.958;6.770;2022-11-18T08:28:40;11.30;99.90
2647;DHT22;1333;50.958;6.770;2022-11-18T08:33:38;12.10;99.90
2647;DHT22;1333;50.958;6.770;2022-11-18T08:36:06;12.70;99.90
2647;DHT22;1333;50.958;6.770;2022-11-18T08:38:32;13.60;99.90
2647;DHT22;1333;50.958;6.770;2022-11-18T08:40:58;14.40;99.90
2647;DHT22;1333;50.958;6.770;2022-11-18T08:43:23;15.20;99.90
2647;DHT22;1333;50.958;6.770;2022-11-18T08:45:49;15.30;99.90
2647;DHT22;1333;50.958;6.770;2022-11-18T08:48:14;15.40;99.90
2647;DHT22;1333;50.958;6.770;2022-11-18T08:50:40;15.50;99.90
2647;DHT22;1333;50.958;6.770;2022-11-18T08:53:05;16.00;99.90
2647;DHT22;1333;50.958;6.770;2022-11-18T08:55:31;16.20;99.90
2647;DHT22;1333;50.958;6.770;2022-11-18T08:57:56;16.60;99.90
2647;DHT22;1333;50.958;6.770;2022-11-18T09:00:22;16.80;99.90
2647;DHT22;1333;50.958;6.770;2022-11-18T09:02:47;17.00;99.90
2647;DHT22;1333;50.958;6.770;2022-11-18T09:05:13;17.40;99.90
2647;DHT22;1333;50.958;6.770;2022-11-18T09:07:38;17.30;99.90
2647;DHT22;1333;50.958;6.770;2022-11-18T09:10:04;17.90;99.90
2647;DHT22;1333;50.958;6.770;2022-11-18T09:12:30;18.10;99.90
2647;DHT22;1333;50.958;6.770;2022-11-18T09:14:55;18.60;99.90
2647;DHT22;1333;50.958;6.770;2022-11-18T09:17:21;19.00;99.90
2647;DHT22;1333;50.958;6.770;2022-11-18T09:19:46;19.30;99.90
2647;DHT22;1333;50.958;6.770;2022-11-18T09:22:12;19.40;99.90
2647;DHT22;1333;50.958;6.770;2022-11-18T09:24:37;19.60;99.90
2647;DHT22;1333;50.958;6.770;2022-11-18T09:27:06;19.60;99.90
2647;DHT22;1333;50.958;6.770;2022-11-18T09:29:32;19.10;98.50
2647;DHT22;1333;50.958;6.770;2022-11-18T09:31:57;19.10;99.80
2647;DHT22;1333;50.958;6.770;2022-11-18T09:34:26;18.80;99.90
2647;DHT22;1333;50.958;6.770;2022-11-18T09:36:52;18.60;99.90
2647;DHT22;1333;50.958;6.770;2022-11-18T09:39:20;18.70;99.40
2647;DHT22;1333;50.958;6.770;2022-11-18T09:44:42;18.20;99.90
2647;DHT22;1333;50.958;6.770;2022-11-18T09:47:26;18.10;99.90
2647;DHT22;1333;50.958;6.770;2022-11-18T09:49:55;18.70;99.90
2647;DHT22;1333;50.958;6.770;2022-11-18T09:54:50;19.30;96.80
2647;DHT22;1333;50.958;6.770;2022-11-18T09:57:23;19.50;97.50
2647;DHT22;1333;50.958;6.770;2022-11-18T09:59:49;20.30;97.70
2647;DHT22;1333;50.958;6.770;2022-11-18T10:02:25;21.20;91.30
2647;DHT22;1333;50.958;6.770;2022-11-18T10:04:54;22.00;91.40
2647;DHT22;1333;50.958;6.770;2022-11-18T10:07:24;22.60;78.20
2647;DHT22;1333;50.958;6.770;2022-11-18T10:09:53;22.20;75.00
2647;DHT22;1333;50.958;6.770;2022-11-18T10:12:38;22.50;75.50
2647;DHT22;1333;50.958;6.770;2022-11-18T10:15:20;22.90;73.50
2647;DHT22;1333;50.958;6.770;2022-11-18T10:20:38;24.50;68.10
2647;DHT22;1333;50.958;6.770;2022-11-18T10:23:22;25.20;65.40
2647;DHT22;1333;50.958;6.770;2022-11-18T10:25:48;25.70;59.30
2647;DHT22;1333;50.958;6.770;2022-11-18T10:28:26;25.90;58.90
2647;DHT22;1333;50.958;6.770;2022-11-18T10:31:02;26.60;56.80
2647;DHT22;1333;50.958;6.770;2022-11-18T10:33:28;26.80;56.20
2647;DHT22;1333;50.958;6.770;2022-11-18T10:38:36;29.20;53.10
2647;DHT22;1333;50.958;6.770;2022-11-18T10:41:06;29.80;50.50
2647;DHT22;1333;50.958;6.770;2022-11-18T10:49:14;28.00;50.00
2647;DHT22;1333;50.958;6.770;2022-11-18T10:51:48;27.30;49.40
2647;DHT22;1333;50.958;6.770;2022-11-18T10:54:28;26.80;49.80
2647;DHT22;1333;50.958;6.770;2022-11-18T10:59:48;23.70;52.30
2647;DHT22;1333;50.958;6.770;2022-11-18T11:02:30;22.40;54.60
2647;DHT22;1333;50.958;6.770;2022-11-18T11:04:58;21.80;56.80
2647;DHT22;1333;50.958;6.770;2022-11-18T11:12:27;20.50;60.30
2647;DHT22;1333;50.958;6.770;2022-11-18T11:14:56;21.40;61.30
2647;DHT22;1333;50.958;6.770;2022-11-18T11:17:44;21.50;59.30
2647;DHT22;1333;50.958;6.770;2022-11-18T11:20:20;21.00;60.20
2647;DHT22;1333;50.958;6.770;2022-11-18T11:22:47;20.90;61.20
2647;DHT22;1333;50.958;6.770;2022-11-18T11:25:22;20.40;61.50
2647;DHT22;1333;50.958;6.770;2022-11-18T11:28:06;19.50;64.10
2647;DHT22;1333;50.958;6.770;2022-11-18T11:30:44;18.70;69.70
2647;DHT22;1333;50.958;6.770;2022-11-18T11:33:18;18.10;76.10
2647;DHT22;1333;50.958;6.770;2022-11-18T11:35:57;18.10;84.40
2647;DHT22;1333;50.958;6.770;2022-11-18T11:38:31;18.40;83.40
2647;DHT22;1333;50.958;6.770;2022-11-18T11:46:11;19.30;83.80
2647;DHT22;1333;50.958;6.770;2022-11-18T11:51:39;19.30;80.90
2647;DHT22;1333;50.958;6.770;2022-11-18T11:59:45;20.60;77.40
2647;DHT22;1333;50.958;6.770;2022-11-18T12:07:54;23.10;69.60
2647;DHT22;1333;50.958;6.770;2022-11-18T12:10:28;24.40;64.00
2647;DHT22;1333;50.958;6.770;2022-11-18T12:26:50;23.30;58.30
2647;DHT22;1333;50.958;6.770;2022-11-18T12:31:52;21.40;60.60
2647;DHT22;1333;50.958;6.770;2022-11-18T12:36:52;20.20;66.30
2647;DHT22;1333;50.958;6.770;2022-11-18T12:44:34;18.80;77.70
2647;DHT22;1333;50.958;6.770;2022-11-18T12:47:08;18.30;83.00
2647;DHT22;1333;50.958;6.770;2022-11-18T12:54:54;18.10;92.30
2647;DHT22;1333;50.958;6.770;2022-11-18T12:57:23;18.50;91.30
2647;DHT22;1333;50.958;6.770;2022-11-18T12:59:49;19.70;89.20
2647;DHT22;1333;50.958;6.770;2022-11-18T13:02:26;20.90;76.90
2647;DHT22;1333;50.958;6.770;2022-11-18T13:05:18;21.10;74.00
2647;DHT22;1333;50.958;6.770;2022-11-18T13:07:57;21.00;73.00
2647;DHT22;1333;50.958;6.770;2022-11-18T13:10:56;20.70;72.20
2647;DHT22;1333;50.958;6.770;2022-11-18T13:13:43;20.40;72.50
2647;DHT22;1333;50.958;6.770;2022-11-18T13:16:18;20.00;72.00
2647;DHT22;1333;50.958;6.770;2022-11-18T13:19:03;19.10;76.40
2647;DHT22;1333;50.958;6.770;2022-11-18T13:21:29;18.50;82.80
2647;DHT22;1333;50.958;6.770;2022-11-18T13:24:19;18.20;87.70
2647;DHT22;1333;50.958;6.770;2022-11-18T13:26:46;18.20;90.20
2647;DHT22;1333;50.958;6.770;2022-11-18T13:29:41;18.40;89.30
2647;DHT22;1333;50.958;6.770;2022-11-18T13:32:21;18.40;90.00
2647;DHT22;1333;50.958;6.770;2022-11-18T13:34:56;18.40;91.20
2647;DHT22;1333;50.958;6.770;2022-11-18T13:37:30;18.30;89.80
2647;DHT22;1333;50.958;6.770;2022-11-18T13:39:58;17.90;90.10
2647;DHT22;1333;50.958;6.770;2022-11-18T13:42:29;17.70;91.00
2647;DHT22;1333;50.958;6.770;2022-11-18T13:45:00;17.40;93.60
2647;DHT22;1333;50.958;6.770;2022-11-18T13:52:27;16.40;98.80
2647;DHT22;1333;50.958;6.770;2022-11-18T13:54:55;16.00;99.90
2647;DHT22;1333;50.958;6.770;2022-11-18T13:57:23;15.80;99.90
2647;DHT22;1333;50.958;6.770;2022-11-18T13:59:51;15.70;99.90
2647;DHT22;1333;50.958;6.770;2022-11-18T14:02:18;15.70;99.90
2647;DHT22;1333;50.958;6.770;2022-11-18T14:04:50;15.50;99.90
2647;DHT22;1333;50.958;6.770;2022-11-18T14:07:31;15.30;99.90
2647;DHT22;1333;50.958;6.770;2022-11-18T14:10:03;15.20;99.90
2647;DHT22;1333;50.958;6.770;2022-11-18T14:12:31;15.20;99.90
2647;DHT22;1333;50.958;6.770;2022-11-18T14:15:13;15.10;99.90
2647;DHT22;1333;50.958;6.770;2022-11-18T14:17:50;14.90;99.90
2647;DHT22;1333;50.958;6.770;2022-11-18T14:20:15;14.70;99.90
2647;DHT22;1333;50.958;6.770;2022-11-18T14:22:42;14.40;99.90
2647;DHT22;1333;50.958;6.770;2022-11-18T14:27:52;14.10;99.90
2647;DHT22;1333;50.958;6.770;2022-11-18T14:30:35;13.90;99.90
2647;DHT22;1333;50.958;6.770;2022-11-18T14:33:14;13.70;99.90
2647;DHT22;1333;50.958;6.770;2022-11-18T14:38:20;13.40;99.90
2647;DHT22;1333;50.958;6.770;2022-11-18T14:40:55;13.20;99.90
2647;DHT22;1333;50.958;6.770;2022-11-18T14:43:22;13.20;99.90
2647;DHT22;1333;50.958;6.770;2022-11-18T14:45:48;13.10;99.90
2647;DHT22;1333;50.958;6.770;2022-11-18T14:48:16;13.10;99.90
2647;DHT22;1333;50.958;6.770;2022-11-18T14:50:43;13.10;99.90
2647;DHT22;1333;50.958;6.770;2022-11-18T14:53:11;13.00;99.90
2647;DHT22;1333;50.958;6.770;2022-11-18T14:55:37;13.00;99.90
2647;DHT22;1333;50.958;6.770;2022-11-18T14:58:02;12.90;99.90
2647;DHT22;1333;50.958;6.770;2022-11-18T15:00:28;12.90;99.90
2647;DHT22;1333;50.958;6.770;2022-11-18T15:02:53;12.90;99.90
2647;DHT22;1333;50.958;6.770;2022-11-18T15:05:19;12.80;99.90
2647;DHT22;1333;50.958;6.770;2022-11-18T15:07:44;12.80;99.90
2647;DHT22;1333;50.958;6.770;2022-11-18T15:10:12;12.80;99.90
2647;DHT22;1333;50.958;6.770;2022-11-18T15:12:39;12.70;99.90
2647;DHT22;1333;50.958;6.770;2022-11-18T15:15:05;12.70;99.90
2647;DHT22;1333;50.958;6.770;2022-11-18T15:17:30;12.70;99.90
2647;DHT22;1333;50.958;6.770;2022-11-18T15:19:56;12.70;99.90
2647;DHT22;1333;50.958;6.770;2022-11-18T15:22:21;12.60;99.90
2647;DHT22;1333;50.958;6.770;2022-11-18T15:24:47;12.60;99.90
2647;DHT22;1333;50.958;6.770;2022-11-18T15:27:12;12.50;99.90
2647;DHT22;1333;50.958;6.770;2022-11-18T15:29:39;12.50;99.90
2647;DHT22;1333;50.958;6.770;2022-11-18T15:32:04;12.40;99.90
2647;DHT22;1333;50.958;6.770;2022-11-18T15:34:30;12.30;99.90
2647;DHT22;1333;50.958;6.770;2022-11-18T15:36:56;12.30;99.90
2647;DHT22;1333;50.958;6.770;2022-11-18T15:39:22;12.10;99.90
2647;DHT22;1333;50.958;6.770;2022-11-18T15:41:47;12.00;99.90
2647;DHT22;1333;50.958;6.770;2022-11-18T15:44:13;11.90;99.90
2647;DHT22;1333;50.958;6.770;2022-11-18T15:46:38;11.80;99.90
2647;DHT22;1333;50.958;6.770;2022-11-18T15:49:04;11.70;99.90
2647;DHT22;1333;50.958;6.770;2022-11-18T15:51:29;11.70;99.90
2647;DHT22;1333;50.958;6.770;2022-11-18T15:53:55;11.60;99.90
2647;DHT22;1333;50.958;6.770;2022-11-18T15:56:31;11.60;99.90
2647;DHT22;1333;50.958;6.770;2022-11-18T15:59:05;11.50;99.90
2647;DHT22;1333;50.958;6.770;2022-11-18T16:01:33;11.50;99.90
2647;DHT22;1333;50.958;6.770;2022-11-18T16:03:59;11.40;99.90
2647;DHT22;1333;50.958;6.770;2022-11-18T16:06:25;11.40;99.90
2647;DHT22;1333;50.958;6.770;2022-11-18T16:08:50;11.30;99.90
2647;DHT22;1333;50.958;6.770;2022-11-18T16:11:17;11.30;99.90
2647;DHT22;1333;50.958;6.770;2022-11-18T16:14:06;11.30;99.90
2647;DHT22;1333;50.958;6.770;2022-11-18T16:16:33;11.30;99.90
2647;DHT22;1333;50.958;6.770;2022-11-18T16:19:04;11.40;99.90
2647;DHT22;1333;50.958;6.770;2022-11-18T16:21:35;11.40;99.90
2647;DHT22;1333;50.958;6.770;2022-11-18T16:24:03;11.40;99.90
2647;DHT22;1333;50.958;6.770;2022-11-18T16:26:29;11.40;99.90
2647;DHT22;1333;50.958;6.770;2022-11-18T16:28:56;11.30;99.90
2647;DHT22;1333;50.958;6.770;2022-11-18T16:31:22;11.20;99.90
2647;DHT22;1333;50.958;6.770;2022-11-18T16:34:13;11.20;99.90
2647;DHT22;1333;50.958;6.770;2022-11-18T16:36:44;11.20;99.90
2647;DHT22;1333;50.958;6.770;2022-11-18T16:39:12;11.00;99.90
2647;DHT22;1333;50.958;6.770;2022-11-18T16:41:39;11.00;99.90
2647;DHT22;1333;50.958;6.770;2022-11-18T16:44:10;10.90;99.90
2647;DHT22;1333;50.958;6.770;2022-11-18T16:46:38;10.80;99.90
2647;DHT22;1333;50.958;6.770;2022-11-18T16:49:04;10.70;99.90
2647;DHT22;1333;50.958;6.770;2022-11-18T16:51:32;10.60;99.90
2647;DHT22;1333;50.958;6.770;2022-11-18T16:54:00;10.70;99.90
2647;DHT22;1333;50.958;6.770;2022-11-18T16:56:28;10.60;99.90
2647;DHT22;1333;50.958;6.770;2022-11-18T16:59:05;10.60;99.90
2647;DHT22;1333;50.958;6.770;2022-11-18T17:01:31;10.60;99.90
2647;DHT22;1333;50.958;6.770;2022-11-18T17:03:57;10.60;99.90
2647;DHT22;1333;50.958;6.770;2022-11-18T17:06:25;10.50;99.90
2647;DHT22;1333;50.958;6.770;2022-11-18T17:08:51;10.50;99.90
2647;DHT22;1333;50.958;6.770;2022-11-18T17:11:17;10.40;99.90
2647;DHT22;1333;50.958;6.770;2022-11-18T17:13:43;10.30;99.90
2647;DHT22;1333;50.958;6.770;2022-11-18T17:16:14;10.30;99.90
2647;DHT22;1333;50.958;6.770;2022-11-18T17:18:40;10.30;99.90
2647;DHT22;1333;50.958;6.770;2022-11-18T17:21:14;10.30;99.90
2647;DHT22;1333;50.958;6.770;2022-11-18T17:23:42;10.20;99.90
2647;DHT22;1333;50.958;6.770;2022-11-18T17:26:07;10.20;99.90
2647;DHT22;1333;50.958;6.770;2022-11-18T17:28:35;10.20;99.90
2647;DHT22;1333;50.958;6.770;2022-11-18T17:31:20;10.20;99.90
2647;DHT22;1333;50.958;6.770;2022-11-18T17:33:47;10.30;99.90
2647;DHT22;1333;50.958;6.770;2022-11-18T17:36:18;10.20;99.90
2647;DHT22;1333;50.958;6.770;2022-11-18T17:38:46;10.30;99.90
2647;DHT22;1333;50.958;6.770;2022-11-18T17:41:14;10.40;99.90
2647;DHT22;1333;50.958;6.770;2022-11-18T17:44:00;10.40;99.90
2647;DHT22;1333;50.958;6.770;2022-11-18T17:46:26;10.50;99.90
2647;DHT22;1333;50.958;6.770;2022-11-18T17:48:55;10.50;99.90
2647;DHT22;1333;50.958;6.770;2022-11-18T17:51:22;10.60;99.90
2647;DHT22;1333;50.958;6.770;2022-11-18T17:53:47;10.60;99.90
2647;DHT22;1333;50.958;6.770;2022-11-18T17:56:13;10.60;99.90
2647;DHT22;1333;50.958;6.770;2022-11-18T17:58:39;10.60;99.90
2647;DHT22;1333;50.958;6.770;2022-11-18T18:01:08;10.60;99.90
2647;DHT22;1333;50.958;6.770;2022-11-18T18:03:35;10.60;99.90
2647;DHT22;1333;50.958;6.770;2022-11-18T18:06:04;10.60;99.90
2647;DHT22;1333;50.958;6.770;2022-11-18T18:08:31;10.60;99.90